This is the latest recevied weather packets stored in our database for station/object OK1TBF-6. If no packets are shown the sender has not sent any weather packets the latest 10 day(s).
| Time | Temp. | Humidity | Pressure | Rain* | Wind** | Luminosity | Snow |
|---|---|---|---|---|---|---|---|
| 1778050547 | 13.89° C | 83% | 999.4 hPa | 0 mm | - | - | - |
| 1778049647 | 13.89° C | 87% | 999.3 hPa | 0 mm | - | - | - |
| 1778049347 | 13.33° C | 88% | 999.3 hPa | 0 mm | - | - | - |
| 1778048147 | 13.33° C | 89% | 999.4 hPa | 0 mm | - | - | - |
| 1778047848 | 13.33° C | 91% | 999.3 hPa | 0 mm | - | - | - |
| 1778047546 | 12.78° C | 91% | 999.1 hPa | 0 mm | - | - | - |
| 1778046646 | 12.78° C | 95% | 999.2 hPa | 0 mm | - | - | - |
| 1778046347 | 12.78° C | 97% | 999 hPa | 0 mm | - | - | - |
| 1778045746 | 12.78° C | 97% | 999.1 hPa | 0 mm | - | - | - |
| 1778044247 | 11.67° C | 99% | 998.7 hPa | 0 mm | - | - | - |
| 1778042146 | 11.67° C | 99% | 998.7 hPa | 0 mm | - | - | - |
| 1778040047 | 11.11° C | 99% | 998.3 hPa | 0 mm | - | - | - |
| 1778036746 | 11.11° C | 99% | 998 hPa | 0 mm | - | - | - |
| 1778035845 | 11.67° C | 98% | 997.9 hPa | 0 mm | - | - | - |
| 1778035246 | 11.67° C | 97% | 997.7 hPa | 0 mm | - | - | - |
| 1778034944 | 11.67° C | 97% | 997.8 hPa | 0 mm | - | - | - |
| 1778034346 | 11.67° C | 96% | 997.6 hPa | 0 mm | - | - | - |
| 1778032244 | 12.22° C | 90% | 998 hPa | 0 mm | - | - | - |
| 1778028944 | 13.89° C | 68% | 997.5 hPa | 0 mm | - | - | - |
| 1778027144 | 14.44° C | 67% | 997.6 hPa | 0 mm | - | - | - |
| 1778025043 | 14.44° C | 65% | 998 hPa | 0 mm | - | - | - |
| 1778023843 | 14.44° C | 63% | 997.9 hPa | 0 mm | - | - | - |
| 1778022643 | 14.44° C | 63% | 998 hPa | 0 mm | - | - | - |
| 1778021442 | 15° C | 61% | 997.7 hPa | 0 mm | - | - | - |
| 1778021143 | 15° C | 61% | 997.4 hPa | 0 mm | - | - | - |
* Rain latest hour (hover to see other rain measurements)
** Current wind speed in m/s (hover to see current wind gust speed)